Time;durP1;ratioP1;P1;durP2;ratioP2;P2;SDS_P1;SDS_P2;PMS_P1;PMS_P2;Temp;Humidity;BMP_temperature;BMP_pressure;BME280_temperature;BME280_humidity;BME280_pressure;Samples;Min_cycle;Max_cycle;Signal;HPM_P1;HPM_P2
2023/09/20 00:02:12;;;;;;;8.63;3.50;;;16.70;99.90;;;;;;4995076;28;20046;-66
2023/09/20 00:04:38;;;;;;;10.05;3.58;;;16.70;99.90;;;;;;4994668;28;20402;-65
2023/09/20 00:07:07;;;;;;;9.43;3.60;;;16.70;99.90;;;;;;4994544;28;20046;-66
2023/09/20 00:09:33;;;;;;;11.45;3.80;;;16.70;99.90;;;;;;4994829;28;20057;-66
2023/09/20 00:11:59;;;;;;;10.38;3.75;;;16.70;99.90;;;;;;4994825;28;20439;-66
2023/09/20 00:14:25;;;;;;;10.18;3.72;;;16.70;99.90;;;;;;4994779;28;20128;-66
2023/09/20 00:16:52;;;;;;;9.35;3.78;;;16.70;99.90;;;;;;4994591;28;20042;-66
2023/09/20 00:19:18;;;;;;;10.55;3.67;;;16.70;99.90;;;;;;4978337;28;20454;-66
2023/09/20 00:21:46;;;;;;;11.20;3.80;;;16.70;99.90;;;;;;4994339;28;20046;-65
2023/09/20 00:24:12;;;;;;;11.68;3.70;;;16.80;99.90;;;;;;4977350;28;20430;-70
2023/09/20 00:26:38;;;;;;;10.55;3.60;;;16.70;99.90;;;;;;4994208;28;20038;-70
2023/09/20 00:29:05;;;;;;;9.07;3.30;;;16.70;99.90;;;;;;4978363;28;20471;-70
2023/09/20 00:31:34;;;;;;;10.05;3.70;;;16.80;99.90;;;;;;4994148;28;20042;-70
2023/09/20 00:34:03;;;;;;;12.07;3.90;;;16.80;99.90;;;;;;4994089;28;20038;-69
2023/09/20 00:36:30;;;;;;;13.48;3.78;;;16.80;99.90;;;;;;4993893;28;20046;-69
2023/09/20 00:39:00;;;;;;;10.38;3.47;;;16.80;99.90;;;;;;4994201;28;20050;-70
2023/09/20 00:41:27;;;;;;;10.10;3.38;;;16.80;99.90;;;;;;4993957;28;20046;-69
2023/09/20 00:43:53;;;;;;;9.35;3.42;;;16.80;99.90;;;;;;4993844;28;20047;-70
2023/09/20 00:46:20;;;;;;;9.77;3.70;;;16.90;99.90;;;;;;4993785;28;20054;-70
2023/09/20 00:49:04;;;;;;;10.57;3.95;;;16.90;99.90;;;;;;4994149;28;20039;-70
2023/09/20 00:51:36;;;;;;;11.35;3.72;;;16.80;99.90;;;;;;4993964;28;20615;-70
2023/09/20 00:54:04;;;;;;;10.77;3.40;;;16.90;99.90;;;;;;4993716;28;20054;-70
2023/09/20 00:56:30;;;;;;;10.43;3.50;;;16.80;99.90;;;;;;4993654;28;20395;-70
2023/09/20 00:58:56;;;;;;;11.65;3.47;;;16.90;99.90;;;;;;4993724;28;20137;-69
2023/09/20 01:01:26;;;;;;;11.40;3.40;;;16.90;99.90;;;;;;4993517;28;20606;-69
2023/09/20 01:03:53;;;;;;;10.68;3.60;;;16.90;99.90;;;;;;4993565;28;20042;-70
2023/09/20 01:06:20;;;;;;;12.05;3.60;;;16.90;99.90;;;;;;4994010;28;20483;-69
2023/09/20 01:08:46;;;;;;;9.98;3.42;;;16.90;99.90;;;;;;4993818;28;20486;-68
2023/09/20 01:11:13;;;;;;;11.85;3.47;;;16.90;99.90;;;;;;4993838;28;20046;-70
2023/09/20 01:13:40;;;;;;;11.30;3.55;;;16.90;99.90;;;;;;4977717;28;20081;-70
2023/09/20 01:16:09;;;;;;;11.93;3.80;;;16.90;99.90;;;;;;4993596;28;20042;-69
2023/09/20 01:18:35;;;;;;;11.80;3.30;;;16.90;99.90;;;;;;4977461;28;20042;-70
2023/09/20 01:21:00;;;;;;;13.13;3.50;;;16.90;99.90;;;;;;4993258;28;20392;-71
2023/09/20 01:23:27;;;;;;;9.98;3.50;;;16.90;99.90;;;;;;4977236;28;20034;-70
2023/09/20 01:25:56;;;;;;;11.65;3.45;;;16.90;99.90;;;;;;4993648;28;20038;-69
2023/09/20 01:28:25;;;;;;;10.70;3.13;;;16.90;99.90;;;;;;4993111;28;20043;-72
2023/09/20 01:30:54;;;;;;;9.60;3.25;;;16.90;99.90;;;;;;4993354;28;20046;-71
2023/09/20 01:33:19;;;;;;;9.73;3.67;;;16.90;99.90;;;;;;4977113;28;20456;-71
2023/09/20 01:35:48;;;;;;;10.60;3.50;;;16.90;99.90;;;;;;4992804;28;20121;-69
2023/09/20 01:38:14;;;;;;;10.05;3.30;;;16.90;99.90;;;;;;4992917;28;20050;-70
2023/09/20 01:40:40;;;;;;;10.82;3.45;;;16.90;99.90;;;;;;4992895;28;20491;-71
2023/09/20 01:43:11;;;;;;;9.82;3.50;;;16.90;99.90;;;;;;4993096;28;20097;-72
2023/09/20 01:45:38;;;;;;;11.52;3.30;;;16.90;99.90;;;;;;4976599;28;20038;-70
2023/09/20 01:48:08;;;;;;;12.38;3.67;;;16.90;99.90;;;;;;4993032;28;20049;-70
2023/09/20 01:50:34;;;;;;;10.75;3.60;;;16.90;99.90;;;;;;4976967;28;20085;-70
2023/09/20 01:53:05;;;;;;;9.45;3.53;;;16.90;99.90;;;;;;4992819;28;20050;-67
2023/09/20 01:55:31;;;;;;;8.82;3.40;;;16.90;99.90;;;;;;4992988;28;20096;-67
2023/09/20 01:58:06;;;;;;;11.35;3.33;;;16.90;99.90;;;;;;4992519;28;20058;-67
2023/09/20 02:00:50;;;;;;;10.85;3.35;;;16.90;99.90;;;;;;4992554;28;20499;-67
2023/09/20 02:03:19;;;;;;;12.85;3.40;;;16.90;99.90;;;;;;4992778;28;20077;-67
2023/09/20 02:05:49;;;;;;;8.95;3.00;;;16.90;99.90;;;;;;5009108;28;20049;-66
2023/09/20 02:08:16;;;;;;;10.75;3.30;;;16.90;99.90;;;;;;4992927;28;20038;-65
2023/09/20 02:10:44;;;;;;;10.63;3.05;;;16.90;99.90;;;;;;4992690;28;20045;-66
2023/09/20 02:13:10;;;;;;;12.38;3.45;;;17.00;99.90;;;;;;4976638;28;20046;-66
2023/09/20 02:15:36;;;;;;;9.98;2.97;;;17.00;99.90;;;;;;4992506;28;20046;-65
2023/09/20 02:18:06;;;;;;;9.75;3.42;;;17.00;99.90;;;;;;4992316;28;20082;-66
2023/09/20 02:20:39;;;;;;;12.25;3.20;;;17.00;99.90;;;;;;4976104;28;20046;-66
2023/09/20 02:23:06;;;;;;;12.68;3.17;;;17.00;99.90;;;;;;4993852;28;20494;-66
2023/09/20 02:25:32;;;;;;;11.15;3.10;;;17.00;99.90;;;;;;4992700;28;20125;-66
2023/09/20 02:27:59;;;;;;;9.10;3.30;;;17.00;99.90;;;;;;4992369;28;20070;-65
2023/09/20 02:30:32;;;;;;;9.90;3.10;;;17.00;99.90;;;;;;4992492;28;20039;-66
2023/09/20 02:32:59;;;;;;;11.00;3.42;;;17.00;99.90;;;;;;4992618;28;20555;-66
2023/09/20 02:35:29;;;;;;;9.88;3.25;;;17.00;99.90;;;;;;4992774;28;20038;-66
2023/09/20 02:37:56;;;;;;;10.30;3.47;;;17.00;99.90;;;;;;4992500;28;20039;-66
2023/09/20 02:40:23;;;;;;;9.75;2.90;;;17.00;99.90;;;;;;4976319;28;20383;-65
2023/09/20 02:42:52;;;;;;;10.02;3.10;;;17.10;99.90;;;;;;4992575;28;20038;-66
2023/09/20 02:45:19;;;;;;;8.52;3.03;;;17.00;99.90;;;;;;4992573;28;20038;-65
2023/09/20 02:47:48;;;;;;;9.73;3.20;;;17.00;99.90;;;;;;4978450;28;20043;-66
2023/09/20 02:50:19;;;;;;;10.68;3.15;;;17.10;99.90;;;;;;4996311;28;20450;-65
2023/09/20 02:52:47;;;;;;;9.67;3.10;;;17.00;99.90;;;;;;4995924;28;20124;-65
2023/09/20 02:55:17;;;;;;;8.93;3.22;;;17.10;99.90;;;;;;4979876;28;20038;-65
2023/09/20 02:57:45;;;;;;;10.70;3.65;;;17.10;99.90;;;;;;4997191;28;20085;-66
2023/09/20 03:00:21;;;;;;;10.55;3.20;;;17.10;99.90;;;;;;4995670;28;20054;-67
2023/09/20 03:02:51;;;;;;;9.13;3.30;;;17.10;99.90;;;;;;4979685;28;20130;-66
2023/09/20 03:05:19;;;;;;;11.32;3.30;;;17.10;99.90;;;;;;4995679;28;20077;-66
2023/09/20 03:07:46;;;;;;;10.93;3.28;;;17.10;99.90;;;;;;4995658;28;20042;-66
2023/09/20 03:10:13;;;;;;;10.95;3.47;;;17.10;99.90;;;;;;4995721;28;20054;-67
2023/09/20 03:12:44;;;;;;;12.93;3.58;;;17.10;99.90;;;;;;4979524;28;20053;-66
2023/09/20 03:15:11;;;;;;;10.38;3.30;;;17.10;99.90;;;;;;4995928;28;20085;-66
2023/09/20 03:17:39;;;;;;;9.55;3.33;;;17.00;99.90;;;;;;4995538;28;20038;-66
2023/09/20 03:20:24;;;;;;;10.82;3.28;;;17.00;99.90;;;;;;4995298;28;20054;-65
2023/09/20 03:23:03;;;;;;;10.93;3.60;;;17.00;99.90;;;;;;4995373;28;20034;-67
2023/09/20 03:25:35;;;;;;;11.85;3.50;;;17.00;99.90;;;;;;4979078;28;20081;-65
2023/09/20 03:28:07;;;;;;;10.48;3.50;;;17.00;99.90;;;;;;4979263;28;20391;-66
2023/09/20 03:30:34;;;;;;;9.43;3.25;;;17.00;99.90;;;;;;4979383;28;20045;-65
2023/09/20 03:33:00;;;;;;;10.50;3.50;;;16.90;99.90;;;;;;4995388;28;20053;-65
2023/09/20 03:35:26;;;;;;;8.73;3.13;;;16.90;99.90;;;;;;4995344;28;20048;-66
2023/09/20 03:37:52;;;;;;;9.57;3.10;;;16.90;99.90;;;;;;4995506;28;20129;-66
2023/09/20 03:40:19;;;;;;;9.15;2.88;;;16.90;99.90;;;;;;4995184;28;20407;-65
2023/09/20 03:42:46;;;;;;;11.52;3.55;;;16.90;99.90;;;;;;4995047;28;20054;-66
2023/09/20 03:45:16;;;;;;;8.63;3.60;;;16.80;99.90;;;;;;4995197;28;20487;-67
2023/09/20 03:47:45;;;;;;;14.65;3.72;;;16.80;99.90;;;;;;4995278;28;20038;-66
2023/09/20 03:50:12;;;;;;;9.25;3.50;;;16.80;99.90;;;;;;4978709;28;20093;-66
2023/09/20 03:52:41;;;;;;;10.65;3.22;;;16.70;99.90;;;;;;4978842;28;20038;-66
2023/09/20 03:55:08;;;;;;;9.88;3.28;;;16.60;99.90;;;;;;4994866;28;20129;-66
2023/09/20 03:57:35;;;;;;;13.48;3.20;;;16.60;99.90;;;;;;4994792;28;20046;-66
2023/09/20 04:00:06;;;;;;;11.68;3.47;;;16.50;99.90;;;;;;4993569;28;20077;-66
2023/09/20 04:02:32;;;;;;;11.55;3.50;;;16.50;99.90;;;;;;4995036;28;20052;-66
2023/09/20 04:05:03;;;;;;;10.40;3.28;;;16.40;99.90;;;;;;4994741;28;20039;-66
2023/09/20 04:07:31;;;;;;;10.02;3.30;;;16.30;99.90;;;;;;4994754;28;20042;-66
2023/09/20 04:09:57;;;;;;;9.65;3.40;;;16.30;99.90;;;;;;4994852;28;20050;-66
2023/09/20 04:12:23;;;;;;;11.93;3.28;;;16.20;99.90;;;;;;4994618;28;20092;-66
2023/09/20 04:14:53;;;;;;;10.68;3.25;;;16.20;99.90;;;;;;4994567;28;20042;-66
2023/09/20 04:17:21;;;;;;;11.07;3.75;;;16.10;99.90;;;;;;4978371;28;20038;-66
2023/09/20 04:19:47;;;;;;;10.32;3.35;;;16.10;99.90;;;;;;4978600;28;20042;-67
2023/09/20 04:22:14;;;;;;;11.93;3.60;;;16.10;99.90;;;;;;4994642;28;20100;-66
2023/09/20 04:24:39;;;;;;;10.23;3.45;;;16.10;99.90;;;;;;4994244;28;20046;-66
2023/09/20 04:27:08;;;;;;;11.95;3.60;;;16.00;99.90;;;;;;4994540;28;20121;-66
2023/09/20 04:29:34;;;;;;;10.65;3.60;;;15.90;99.90;;;;;;4994103;28;20042;-67
2023/09/20 04:32:00;;;;;;;11.48;3.17;;;15.90;99.90;;;;;;4977865;28;20059;-66
2023/09/20 04:34:26;;;;;;;9.07;3.50;;;15.80;99.90;;;;;;4977841;28;20406;-66
2023/09/20 04:36:52;;;;;;;10.57;3.40;;;15.80;99.90;;;;;;4978089;28;20038;-65
2023/09/20 04:39:20;;;;;;;8.95;3.20;;;15.80;99.90;;;;;;4978036;28;20569;-66
2023/09/20 04:41:46;;;;;;;10.32;3.60;;;15.70;99.90;;;;;;4993914;28;20141;-65
2023/09/20 04:44:13;;;;;;;10.38;3.50;;;15.70;99.90;;;;;;4993920;28;20039;-66
2023/09/20 04:46:40;;;;;;;7.18;3.10;;;15.70;99.90;;;;;;4994143;28;20073;-66
2023/09/20 04:49:10;;;;;;;12.27;3.78;;;15.70;99.90;;;;;;4978180;28;20562;-66
2023/09/20 04:51:37;;;;;;;11.05;3.45;;;15.60;99.90;;;;;;4994060;28;20068;-66
2023/09/20 04:54:06;;;;;;;11.10;3.90;;;15.60;99.90;;;;;;4993731;28;20129;-66
2023/09/20 04:56:32;;;;;;;9.70;3.85;;;15.50;99.90;;;;;;4993941;28;20046;-65
2023/09/20 04:58:58;;;;;;;10.80;3.78;;;15.50;99.90;;;;;;4993743;28;20053;-66
2023/09/20 05:01:24;;;;;;;12.32;3.53;;;15.50;99.90;;;;;;4977348;28;20042;-65
2023/09/20 05:03:50;;;;;;;9.63;3.67;;;15.40;99.90;;;;;;4993725;28;20038;-66
2023/09/20 05:06:20;;;;;;;8.25;3.40;;;15.40;99.90;;;;;;4977764;28;20541;-67
2023/09/20 05:08:46;;;;;;;10.05;3.58;;;15.40;99.90;;;;;;4993317;28;20034;-66
2023/09/20 05:11:13;;;;;;;10.18;3.65;;;15.40;99.90;;;;;;4993045;28;20129;-66
2023/09/20 05:13:41;;;;;;;9.65;3.67;;;15.40;99.90;;;;;;4977272;28;20053;-65
2023/09/20 05:16:07;;;;;;;9.73;3.58;;;15.40;99.90;;;;;;4993663;28;20046;-66
2023/09/20 05:18:33;;;;;;;8.90;3.10;;;15.40;99.90;;;;;;4993152;28;20038;-65
2023/09/20 05:21:00;;;;;;;11.07;3.65;;;15.40;99.90;;;;;;4993214;28;20483;-65
2023/09/20 05:23:26;;;;;;;10.00;3.70;;;15.40;99.90;;;;;;4994484;28;20047;-66
2023/09/20 05:25:52;;;;;;;9.13;3.40;;;15.30;99.90;;;;;;4993124;28;20045;-66
2023/09/20 05:28:18;;;;;;;8.00;3.30;;;15.30;99.90;;;;;;4977043;28;20060;-65
2023/09/20 05:30:51;;;;;;;7.47;3.40;;;15.30;99.90;;;;;;4993081;28;20116;-66
2023/09/20 05:33:17;;;;;;;9.02;3.58;;;15.30;99.90;;;;;;4992992;28;20046;-66
2023/09/20 05:35:43;;;;;;;8.27;3.13;;;15.40;99.90;;;;;;4994443;28;20042;-65
2023/09/20 05:38:22;;;;;;;10.32;3.15;;;15.40;99.90;;;;;;4993329;28;20049;-66
2023/09/20 05:40:48;;;;;;;10.77;3.45;;;15.40;99.90;;;;;;4977191;28;20050;-66
2023/09/20 05:43:15;;;;;;;9.60;3.60;;;15.40;99.90;;;;;;4992965;28;20052;-67
2023/09/20 05:45:48;;;;;;;9.00;3.22;;;15.40;99.90;;;;;;4993128;28;20129;-66
2023/09/20 05:48:14;;;;;;;10.30;3.20;;;15.40;99.90;;;;;;4976876;28;20112;-66
2023/09/20 05:50:40;;;;;;;11.15;3.38;;;15.50;99.90;;;;;;4993072;28;20035;-65
2023/09/20 05:53:10;;;;;;;11.20;3.20;;;15.50;99.90;;;;;;4992704;28;20050;-65
2023/09/20 05:55:46;;;;;;;9.05;3.20;;;15.50;99.90;;;;;;4992924;28;20128;-67
2023/09/20 05:58:13;;;;;;;10.70;3.35;;;15.50;99.90;;;;;;5009177;28;20129;-67
2023/09/20 06:00:39;;;;;;;9.90;3.40;;;15.60;99.90;;;;;;4993862;28;20113;-65
2023/09/20 06:03:11;;;;;;;9.05;3.15;;;15.60;99.90;;;;;;4992853;28;20046;-65
2023/09/20 06:05:37;;;;;;;8.50;3.10;;;15.70;99.90;;;;;;4992509;28;20096;-66
2023/09/20 06:08:07;;;;;;;9.32;3.08;;;15.80;99.90;;;;;;4992882;28;20038;-66
2023/09/20 06:10:33;;;;;;;9.85;3.28;;;15.80;99.90;;;;;;4992759;28;20046;-65
2023/09/20 06:12:59;;;;;;;10.05;3.40;;;15.90;99.90;;;;;;4992423;28;20042;-66
2023/09/20 06:15:25;;;;;;;9.77;3.05;;;15.90;99.90;;;;;;4992399;28;20046;-66
2023/09/20 06:17:51;;;;;;;10.23;3.22;;;15.90;99.90;;;;;;4992528;28;20506;-65
2023/09/20 06:20:27;;;;;;;9.35;3.30;;;16.00;99.90;;;;;;4992761;28;20109;-66
2023/09/20 06:22:56;;;;;;;11.55;3.42;;;16.10;99.90;;;;;;4995186;28;20040;-66
2023/09/20 06:25:22;;;;;;;9.35;3.08;;;16.20;99.90;;;;;;4996201;28;20042;-66
2023/09/20 06:28:03;;;;;;;9.73;3.10;;;16.30;99.90;;;;;;4978479;28;20034;-66
2023/09/20 06:30:29;;;;;;;10.88;3.30;;;16.50;99.90;;;;;;4960841;28;20050;-65
2023/09/20 06:33:03;;;;;;;8.90;3.25;;;16.70;99.90;;;;;;4977612;28;20403;-65
2023/09/20 06:35:30;;;;;;;10.23;3.40;;;16.90;99.90;;;;;;4945385;28;20045;-65
2023/09/20 06:37:58;;;;;;;9.13;3.10;;;17.10;99.90;;;;;;4977132;28;20081;-66
2023/09/20 06:40:38;;;;;;;8.07;3.13;;;17.20;99.90;;;;;;4961033;28;20473;-66
2023/09/20 06:43:08;;;;;;;8.98;2.88;;;17.40;99.90;;;;;;4960960;28;20134;-66
2023/09/20 06:45:34;;;;;;;9.35;3.15;;;17.50;99.90;;;;;;4976816;28;20121;-65
2023/09/20 06:48:02;;;;;;;9.93;3.30;;;17.80;99.90;;;;;;4960859;28;20043;-66
2023/09/20 06:50:29;;;;;;;10.20;3.42;;;17.90;99.90;;;;;;4976602;28;20042;-65
2023/09/20 06:52:55;;;;;;;9.50;3.08;;;18.00;99.90;;;;;;4960486;28;20047;-66
2023/09/20 06:55:20;;;;;;;9.32;3.20;;;18.00;99.90;;;;;;4960403;28;20495;-66
2023/09/20 06:57:47;;;;;;;10.15;3.30;;;18.00;99.90;;;;;;4944441;28;20042;-67
2023/09/20 07:00:25;;;;;;;9.00;3.20;;;18.20;99.90;;;;;;4976498;28;20054;-67
2023/09/20 07:02:52;;;;;;;7.97;3.10;;;18.40;99.90;;;;;;4977899;28;20050;-66
2023/09/20 07:05:18;;;;;;;9.68;3.35;;;18.40;99.90;;;;;;4960402;28;20043;-66
2023/09/20 07:07:48;;;;;;;7.00;3.00;;;18.40;99.90;;;;;;4960160;28;20136;-65
2023/09/20 07:10:23;;;;;;;9.55;3.50;;;18.40;99.90;;;;;;4976201;28;20047;-67
2023/09/20 07:12:55;;;;;;;8.80;2.92;;;18.30;99.90;;;;;;4961246;28;20047;-69
2023/09/20 07:15:25;;;;;;;8.48;3.40;;;18.30;99.90;;;;;;4960257;28;20133;-66
2023/09/20 07:18:01;;;;;;;11.07;3.20;;;18.30;99.90;;;;;;4976378;28;20046;-65
2023/09/20 07:20:31;;;;;;;9.65;3.40;;;18.30;99.90;;;;;;4960471;28;20042;-66
2023/09/20 07:23:15;;;;;;;9.68;3.45;;;18.40;99.90;;;;;;4960287;28;20046;-67
2023/09/20 07:25:42;;;;;;;11.38;3.38;;;18.30;99.90;;;;;;4961201;28;20047;-67
2023/09/20 07:28:09;;;;;;;12.15;3.50;;;18.30;99.90;;;;;;4975617;28;20086;-67
2023/09/20 07:30:39;;;;;;;8.40;3.47;;;18.20;99.90;;;;;;4959773;28;20109;-67
2023/09/20 07:33:11;;;;;;;10.60;3.60;;;18.20;99.90;;;;;;4975982;28;20038;-67
2023/09/20 07:35:38;;;;;;;12.43;3.67;;;18.20;99.90;;;;;;4975788;28;20047;-68
2023/09/20 07:38:14;;;;;;;10.27;3.40;;;18.10;99.90;;;;;;4959987;28;20736;-67
2023/09/20 07:40:40;;;;;;;9.60;3.45;;;18.20;99.90;;;;;;4975861;28;20046;-67
2023/09/20 07:43:07;;;;;;;9.73;3.15;;;18.20;99.90;;;;;;4960161;28;20047;-66
2023/09/20 07:45:38;;;;;;;9.07;3.40;;;18.20;99.90;;;;;;4976039;28;20523;-66
2023/09/20 07:48:12;;;;;;;10.93;3.40;;;18.30;99.90;;;;;;4959759;28;20053;-65
2023/09/20 07:50:50;;;;;;;9.43;3.42;;;18.30;99.90;;;;;;4977228;28;20043;-66
2023/09/20 07:53:18;;;;;;;8.82;3.03;;;18.40;99.90;;;;;;4959378;28;20138;-66
2023/09/20 07:55:55;;;;;;;8.48;3.17;;;18.60;99.90;;;;;;4975416;28;20109;-65
2023/09/20 07:58:21;;;;;;;8.52;3.22;;;18.80;99.90;;;;;;4975378;28;20047;-65
2023/09/20 08:00:51;;;;;;;9.23;3.28;;;18.90;99.90;;;;;;4975325;28;20491;-66
2023/09/20 08:03:20;;;;;;;9.73;3.20;;;19.00;99.90;;;;;;4976491;28;20047;-66
2023/09/20 08:05:48;;;;;;;9.23;2.90;;;19.20;99.90;;;;;;4975239;28;20049;-67
2023/09/20 08:08:14;;;;;;;7.15;3.05;;;19.30;99.90;;;;;;4975330;28;20046;-65
2023/09/20 08:10:41;;;;;;;7.45;2.92;;;19.40;99.90;;;;;;4975219;28;20051;-66
2023/09/20 08:13:11;;;;;;;9.45;3.25;;;19.40;99.90;;;;;;4959355;28;20050;-66
2023/09/20 08:15:43;;;;;;;8.82;3.38;;;19.40;99.90;;;;;;4975015;28;20111;-66
2023/09/20 08:20:59;;;;;;;12.20;3.42;;;19.40;99.90;;;;;;4975145;28;20534;-65
2023/09/20 09:02:17;;;;;;;7.55;2.58;;;19.30;99.90;;;;;;4974194;28;20051;-65
2023/09/20 09:05:05;;;;;;;7.07;2.70;;;19.30;99.90;;;;;;4958822;28;20129;-66
2023/09/20 09:07:31;;;;;;;8.02;2.55;;;19.30;99.90;;;;;;4974266;28;20062;-66
2023/09/20 09:10:03;;;;;;;7.63;2.72;;;19.30;99.90;;;;;;4943507;28;20043;-66
2023/09/20 09:12:33;;;;;;;6.93;2.70;;;19.30;99.90;;;;;;4974038;28;20042;-65
2023/09/20 09:15:10;;;;;;;7.70;2.80;;;19.30;99.90;;;;;;4958184;28;20495;-66
2023/09/20 09:17:46;;;;;;;8.43;2.47;;;19.30;99.90;;;;;;4975220;28;20555;-66
2023/09/20 09:20:32;;;;;;;7.32;2.55;;;19.40;99.90;;;;;;4942285;28;20046;-66
2023/09/20 09:23:17;;;;;;;7.55;2.42;;;19.40;99.90;;;;;;4973962;28;20047;-65
2023/09/20 09:25:43;;;;;;;9.43;2.60;;;19.40;99.90;;;;;;4944512;28;20546;-65
2023/09/20 09:28:09;;;;;;;7.55;2.45;;;19.40;99.90;;;;;;4957744;28;20081;-66
2023/09/20 09:30:35;;;;;;;5.95;2.40;;;19.40;99.90;;;;;;4973940;28;20078;-67
2023/09/20 09:33:03;;;;;;;6.82;2.30;;;19.40;99.90;;;;;;4974130;28;20064;-66
2023/09/20 09:35:29;;;;;;;7.25;2.60;;;19.30;99.90;;;;;;4975073;28;20121;-66
2023/09/20 09:38:21;;;;;;;6.25;2.28;;;19.40;99.90;;;;;;4960204;28;20049;-66
2023/09/20 09:40:56;;;;;;;8.65;2.35;;;19.30;99.90;;;;;;4973845;28;20484;-66
2023/09/20 09:43:25;;;;;;;7.25;2.40;;;19.30;99.90;;;;;;4974054;28;20395;-65
2023/09/20 09:45:55;;;;;;;7.55;2.72;;;19.30;99.90;;;;;;4974034;28;20062;-66
2023/09/20 09:48:31;;;;;;;5.85;2.17;;;19.20;99.90;;;;;;4941797;28;20046;-65
2023/09/20 09:50:59;;;;;;;7.30;2.20;;;19.30;99.90;;;;;;4973832;28;20101;-66
2023/09/20 09:53:25;;;;;;;5.97;2.20;;;19.30;99.90;;;;;;4973366;28;20061;-67
2023/09/20 09:55:52;;;;;;;5.53;2.10;;;19.30;99.90;;;;;;4973673;28;20458;-66
2023/09/20 09:58:18;;;;;;;6.90;2.40;;;19.40;99.90;;;;;;4973746;28;20471;-65
2023/09/20 10:00:55;;;;;;;6.50;2.30;;;19.40;99.90;;;;;;4973094;28;20086;-66
2023/09/20 10:03:30;;;;;;;7.38;2.42;;;19.40;99.90;;;;;;4974771;28;20097;-70
2023/09/20 10:06:07;;;;;;;5.97;2.10;;;19.30;99.90;;;;;;4973648;28;20454;-68
2023/09/20 10:08:38;;;;;;;5.78;2.08;;;19.20;99.90;;;;;;4973604;28;20503;-69
2023/09/20 10:11:08;;;;;;;7.53;2.33;;;19.10;99.90;;;;;;4973775;28;20053;-69
2023/09/20 10:13:38;;;;;;;6.97;2.40;;;19.10;99.90;;;;;;4973523;28;20110;-69
2023/09/20 10:16:07;;;;;;;6.78;2.47;;;19.10;99.90;;;;;;4973475;28;20129;-70
2023/09/20 10:18:53;;;;;;;6.25;2.40;;;19.10;99.90;;;;;;4957555;28;20035;-69
2023/09/20 10:21:25;;;;;;;6.25;2.42;;;19.20;99.90;;;;;;4957216;28;20050;-69
2023/09/20 10:23:59;;;;;;;6.18;2.10;;;19.20;99.90;;;;;;4973663;28;20067;-69
2023/09/20 10:26:26;;;;;;;6.97;2.42;;;19.20;99.90;;;;;;4957540;28;20503;-70
2023/09/20 10:28:57;;;;;;;7.85;2.30;;;19.30;99.90;;;;;;4973224;28;20038;-69
2023/09/20 10:31:23;;;;;;;5.82;2.08;;;19.40;99.90;;;;;;4973548;28;20042;-69
2023/09/20 10:33:56;;;;;;;7.57;2.30;;;19.50;99.90;;;;;;4973583;28;20094;-69
2023/09/20 10:36:25;;;;;;;7.43;2.38;;;19.60;99.90;;;;;;4957376;28;20046;-70
2023/09/20 10:39:11;;;;;;;6.90;2.42;;;19.70;99.90;;;;;;4974415;28;20086;-71
2023/09/20 10:41:41;;;;;;;6.65;2.30;;;19.70;99.90;;;;;;4972999;28;20126;-69
2023/09/20 10:44:07;;;;;;;8.38;2.30;;;19.80;99.90;;;;;;4974275;28;20042;-70
2023/09/20 10:46:37;;;;;;;5.55;2.28;;;19.90;99.90;;;;;;4957155;28;20039;-70
2023/09/20 10:49:05;;;;;;;5.60;2.47;;;19.90;99.90;;;;;;4973009;28;20082;-69
2023/09/20 10:51:53;;;;;;;7.80;2.45;;;19.80;99.90;;;;;;4941750;28;20059;-68
2023/09/20 10:54:36;;;;;;;6.90;2.60;;;19.70;99.90;;;;;;4973306;28;20062;-69
2023/09/20 10:57:05;;;;;;;7.18;2.30;;;19.70;99.90;;;;;;4973144;28;20049;-69
2023/09/20 10:59:32;;;;;;;7.05;2.70;;;19.70;99.90;;;;;;4973142;28;20403;-70
2023/09/20 11:02:16;;;;;;;6.65;2.17;;;19.70;99.90;;;;;;4972744;28;20053;-70
2023/09/20 11:04:42;;;;;;;5.85;2.25;;;19.80;99.90;;;;;;4972840;28;20042;-69
2023/09/20 11:07:09;;;;;;;6.55;2.40;;;20.00;99.90;;;;;;4956796;28;20046;-69
2023/09/20 11:09:38;;;;;;;6.38;2.25;;;20.00;99.90;;;;;;4976154;28;20050;-69
2023/09/20 11:12:07;;;;;;;9.68;2.40;;;20.00;99.90;;;;;;4944842;28;20085;-69
2023/09/20 11:14:41;;;;;;;7.13;2.53;;;20.10;99.90;;;;;;4976258;28;20049;-66
2023/09/20 11:17:07;;;;;;;6.15;2.20;;;20.10;99.90;;;;;;4976217;28;20046;-66
2023/09/20 11:19:34;;;;;;;5.93;2.42;;;20.20;99.90;;;;;;4976095;28;20073;-65
2023/09/20 11:22:01;;;;;;;6.72;2.33;;;20.20;99.90;;;;;;4960021;28;20082;-65
2023/09/20 11:24:30;;;;;;;6.97;2.47;;;20.30;99.90;;;;;;4976119;28;20050;-65
2023/09/20 11:26:56;;;;;;;6.45;2.45;;;20.40;99.90;;;;;;4976028;28;20043;-66
2023/09/20 11:29:24;;;;;;;7.00;2.50;;;20.50;99.90;;;;;;4975948;28;20042;-65
2023/09/20 11:31:55;;;;;;;6.35;2.15;;;20.60;99.90;;;;;;4960150;28;20058;-66
2023/09/20 11:34:20;;;;;;;8.05;2.70;;;20.60;99.90;;;;;;4959789;28;20050;-66
2023/09/20 11:36:47;;;;;;;6.40;2.60;;;20.60;99.90;;;;;;4959723;28;20043;-65
2023/09/20 11:39:17;;;;;;;6.72;2.22;;;20.60;99.90;;;;;;4975745;28;20043;-66
2023/09/20 11:41:46;;;;;;;7.43;2.50;;;20.50;99.90;;;;;;4959607;28;20042;-66
2023/09/20 11:44:16;;;;;;;6.38;2.70;;;20.40;99.90;;;;;;4943986;28;20487;-64
2023/09/20 11:46:57;;;;;;;6.30;2.45;;;20.30;99.90;;;;;;4975545;28;20046;-66
2023/09/20 11:49:24;;;;;;;5.97;2.55;;;20.30;99.90;;;;;;4976084;28;20050;-65
2023/09/20 11:51:50;;;;;;;6.40;2.50;;;20.30;99.90;;;;;;4975759;28;20046;-66
2023/09/20 11:54:16;;;;;;;6.97;2.72;;;20.30;99.90;;;;;;4976015;28;20061;-65
2023/09/20 11:56:47;;;;;;;7.70;3.03;;;20.30;99.90;;;;;;4975772;28;20046;-66
2023/09/20 11:59:14;;;;;;;6.43;2.73;;;20.60;99.90;;;;;;4975109;28;20058;-65
2023/09/20 12:01:45;;;;;;;7.70;2.80;;;20.60;99.90;;;;;;4975364;28;20055;-66
2023/09/20 12:04:13;;;;;;;6.40;2.87;;;20.60;99.90;;;;;;4959576;28;20039;-65
2023/09/20 12:06:39;;;;;;;7.88;2.83;;;20.60;99.90;;;;;;4975705;28;20483;-66
2023/09/20 12:09:10;;;;;;;7.68;2.90;;;20.70;99.90;;;;;;4959149;28;20038;-65
2023/09/20 12:12:00;;;;;;;7.40;3.17;;;20.80;99.90;;;;;;4976741;28;20557;-66
2023/09/20 12:14:26;;;;;;;7.40;3.03;;;21.10;99.90;;;;;;4975450;28;20063;-66
2023/09/20 12:16:51;;;;;;;7.18;2.80;;;21.20;99.90;;;;;;4975239;28;20157;-65
2023/09/20 12:19:28;;;;;;;8.75;3.15;;;21.40;99.90;;;;;;4974030;28;20053;-66
2023/09/20 12:21:54;;;;;;;6.80;2.85;;;21.60;99.90;;;;;;4974866;28;20093;-66
2023/09/20 12:24:28;;;;;;;7.40;3.17;;;21.70;99.90;;;;;;4975134;28;20047;-72
2023/09/20 12:26:56;;;;;;;7.65;3.03;;;21.70;99.90;;;;;;4976534;28;20145;-70
2023/09/20 12:29:28;;;;;;;6.93;3.03;;;21.60;99.90;;;;;;4958814;28;20039;-71
2023/09/20 12:31:57;;;;;;;6.97;2.80;;;21.60;99.90;;;;;;4944512;28;20039;-71
2023/09/20 12:34:23;;;;;;;8.32;3.17;;;21.60;99.90;;;;;;4959038;28;20097;-71
2023/09/20 12:36:58;;;;;;;7.90;3.17;;;21.70;99.90;;;;;;4974661;28;20047;-71
2023/09/20 12:39:24;;;;;;;7.35;3.10;;;21.80;99.90;;;;;;4943148;28;20054;-70
2023/09/20 12:41:50;;;;;;;7.53;2.90;;;21.80;99.90;;;;;;4958617;28;20186;-70
2023/09/20 12:44:20;;;;;;;7.45;3.00;;;21.80;99.90;;;;;;4958794;28;20106;-72
2023/09/20 12:46:53;;;;;;;6.53;2.75;;;21.80;99.90;;;;;;4960139;28;20480;-71
2023/09/20 12:49:19;;;;;;;7.57;2.58;;;21.90;99.90;;;;;;4974541;28;20098;-71
2023/09/20 12:51:44;;;;;;;6.68;2.72;;;21.90;99.90;;;;;;4958746;28;20415;-70
2023/09/20 12:54:10;;;;;;;6.03;2.50;;;21.90;99.90;;;;;;4974250;28;20042;-70
2023/09/20 12:56:39;;;;;;;6.70;2.30;;;21.90;99.90;;;;;;4974372;28;20051;-69
2023/09/20 12:59:05;;;;;;;6.63;2.60;;;21.80;99.90;;;;;;4974476;28;20511;-70
2023/09/20 13:01:31;;;;;;;6.53;2.60;;;21.80;99.90;;;;;;4958369;28;20042;-71
2023/09/20 13:04:03;;;;;;;6.20;2.50;;;21.80;99.90;;;;;;4974564;28;20043;-69
2023/09/20 13:06:32;;;;;;;8.20;2.50;;;21.70;99.90;;;;;;4959739;28;20054;-69
2023/09/20 13:09:02;;;;;;;7.32;2.40;;;21.70;99.90;;;;;;4974457;28;20042;-71
2023/09/20 13:11:29;;;;;;;9.93;2.50;;;21.90;99.90;;;;;;4974894;28;20061;-70
2023/09/20 13:13:56;;;;;;;6.78;2.33;;;21.90;99.90;;;;;;4974392;28;20042;-70
2023/09/20 13:16:22;;;;;;;6.75;2.20;;;22.00;99.90;;;;;;4974690;28;20046;-71
2023/09/20 13:18:48;;;;;;;8.02;2.47;;;21.90;99.90;;;;;;4958650;28;20067;-71
2023/09/20 13:21:14;;;;;;;6.13;2.40;;;21.90;99.90;;;;;;4958312;28;20054;-71
2023/09/20 13:23:40;;;;;;;5.70;2.30;;;21.90;99.90;;;;;;4974582;28;20122;-70
2023/09/20 13:26:15;;;;;;;5.55;2.13;;;22.00;99.90;;;;;;4942445;28;20039;-71
2023/09/20 13:28:47;;;;;;;7.03;2.30;;;22.00;99.90;;;;;;4960218;28;20133;-70
2023/09/20 13:31:15;;;;;;;6.28;2.40;;;22.20;99.90;;;;;;4957920;28;20451;-71
2023/09/20 13:33:41;;;;;;;7.05;2.40;;;22.30;99.90;;;;;;4974242;28;20098;-71
2023/09/20 13:36:06;;;;;;;5.85;2.00;;;22.30;99.90;;;;;;4975175;28;20495;-69